Time;durP1;ratioP1;P1;durP2;ratioP2;P2;SDS_P1;SDS_P2;PMS_P1;PMS_P2;Temp;Humidity;BMP_temperature;BMP_pressure;BME280_temperature;BME280_humidity;BME280_pressure;Samples;Min_cycle;Max_cycle;Signal;HPM_P1;HPM_P2
2021/05/08 00:01:55;;;;;;;2.40;1.87;;;6.00;99.90;;;;;;5078151;28;20183;-74
2021/05/08 00:04:21;;;;;;;2.73;1.80;;;6.00;99.90;;;;;;5079250;28;20199;-73
2021/05/08 00:06:47;;;;;;;2.27;1.90;;;5.90;99.90;;;;;;5079458;28;20181;-72
2021/05/08 00:09:13;;;;;;;1.97;1.83;;;5.90;99.90;;;;;;5078765;28;20219;-74
2021/05/08 00:11:39;;;;;;;2.40;2.20;;;5.90;99.90;;;;;;5079453;28;20173;-73
2021/05/08 00:14:05;;;;;;;2.03;1.83;;;6.00;99.90;;;;;;5077464;28;20268;-74
2021/05/08 00:16:32;;;;;;;2.43;1.90;;;5.90;99.90;;;;;;5077377;28;20185;-74
2021/05/08 00:18:58;;;;;;;2.13;1.90;;;6.00;99.90;;;;;;5078535;28;20177;-74
2021/05/08 00:21:23;;;;;;;3.67;1.90;;;6.10;99.90;;;;;;5077121;28;20225;-74
2021/05/08 00:23:49;;;;;;;2.53;1.73;;;6.10;99.90;;;;;;5079038;28;20270;-73
2021/05/08 00:26:15;;;;;;;3.57;2.00;;;6.20;99.90;;;;;;5078689;28;20598;-74
2021/05/08 00:28:40;;;;;;;1.90;1.67;;;6.20;99.90;;;;;;5077992;28;20712;-73
2021/05/08 00:31:06;;;;;;;3.83;1.80;;;6.20;99.90;;;;;;5077068;28;20227;-73
2021/05/08 00:33:32;;;;;;;4.03;1.87;;;6.20;99.90;;;;;;5078221;28;20169;-73
2021/05/08 00:35:58;;;;;;;4.17;2.43;;;6.20;99.90;;;;;;5076422;28;20647;-74
2021/05/08 00:38:23;;;;;;;1.80;1.70;;;6.20;99.90;;;;;;5078668;28;20267;-74
2021/05/08 00:40:49;;;;;;;2.27;2.00;;;6.40;99.90;;;;;;5078514;28;20193;-73
2021/05/08 00:43:16;;;;;;;3.07;1.83;;;6.30;99.90;;;;;;5076815;28;20194;-74
2021/05/08 00:45:42;;;;;;;1.97;1.77;;;6.40;99.90;;;;;;5078341;28;20252;-74
2021/05/08 00:48:11;;;;;;;2.20;2.00;;;6.20;99.90;;;;;;5078534;28;20267;-74
2021/05/08 00:50:37;;;;;;;2.27;1.60;;;6.20;99.90;;;;;;5076735;28;20279;-74
2021/05/08 00:53:06;;;;;;;1.90;1.80;;;6.10;99.90;;;;;;5078345;28;20207;-73
2021/05/08 00:55:33;;;;;;;1.93;1.77;;;6.20;99.90;;;;;;5076639;28;20200;-74
2021/05/08 00:58:00;;;;;;;1.90;1.70;;;6.10;99.90;;;;;;5073601;28;20182;-74
2021/05/08 01:00:26;;;;;;;1.67;1.53;;;6.10;99.90;;;;;;5073731;28;20196;-74
2021/05/08 01:02:52;;;;;;;4.67;2.07;;;6.00;99.90;;;;;;5076313;28;20177;-73
2021/05/08 01:05:18;;;;;;;3.17;1.97;;;6.10;99.90;;;;;;5077585;28;20177;-74
2021/05/08 01:07:45;;;;;;;2.67;1.80;;;6.00;99.90;;;;;;5077405;28;20187;-74
2021/05/08 01:10:13;;;;;;;1.97;1.87;;;6.10;99.90;;;;;;5076075;28;20254;-73
2021/05/08 01:12:39;;;;;;;1.77;1.60;;;5.90;99.90;;;;;;5077846;28;20173;-73
2021/05/08 01:15:08;;;;;;;1.70;1.60;;;5.90;99.90;;;;;;5077640;28;20256;-74
2021/05/08 01:17:34;;;;;;;2.00;1.67;;;5.80;99.90;;;;;;5078223;28;20251;-73
2021/05/08 01:20:00;;;;;;;1.90;1.80;;;5.90;99.90;;;;;;5102308;22;20328;-71
2021/05/08 01:22:25;;;;;;;2.23;1.70;;;5.70;99.90;;;;;;5049381;28;20205;-74
2021/05/08 01:24:51;;;;;;;1.90;1.80;;;5.70;99.90;;;;;;5055263;28;20607;-73
2021/05/08 01:27:17;;;;;;;2.30;2.10;;;5.60;99.90;;;;;;5054949;28;20174;-73
2021/05/08 01:29:43;;;;;;;2.37;2.00;;;5.40;99.90;;;;;;5052578;28;20256;-73
2021/05/08 01:32:08;;;;;;;3.00;1.87;;;5.50;99.90;;;;;;5051168;28;20200;-73
2021/05/08 01:34:34;;;;;;;2.43;1.97;;;5.50;99.90;;;;;;5051022;28;20188;-74
2021/05/08 01:37:02;;;;;;;2.27;2.00;;;5.60;99.90;;;;;;5051085;28;20213;-73
2021/05/08 01:39:28;;;;;;;3.73;1.87;;;5.60;99.90;;;;;;5034467;28;20209;-73
2021/05/08 01:41:53;;;;;;;2.50;1.97;;;5.60;99.90;;;;;;5046272;28;20288;-73
2021/05/08 01:44:19;;;;;;;1.97;1.83;;;5.60;99.90;;;;;;5034395;28;20277;-73
2021/05/08 01:46:45;;;;;;;2.20;1.77;;;5.60;99.90;;;;;;5017210;28;20178;-72
2021/05/08 01:49:10;;;;;;;3.43;1.93;;;5.60;99.90;;;;;;5032659;28;20170;-74
2021/05/08 01:51:36;;;;;;;2.63;2.43;;;5.50;99.90;;;;;;5044290;28;20233;-73
2021/05/08 01:54:02;;;;;;;2.20;1.90;;;5.60;99.90;;;;;;5072686;28;20654;-73
2021/05/08 01:56:27;;;;;;;2.13;2.00;;;5.50;99.90;;;;;;5054944;28;20276;-73
2021/05/08 01:58:53;;;;;;;2.40;2.00;;;5.50;99.90;;;;;;5051382;28;20186;-73
2021/05/08 02:01:19;;;;;;;2.30;2.10;;;5.50;99.90;;;;;;5042026;28;20200;-72
2021/05/08 02:03:44;;;;;;;2.33;2.13;;;5.50;99.90;;;;;;5046839;28;20572;-73
2021/05/08 02:06:10;;;;;;;2.80;1.90;;;5.40;99.90;;;;;;5034588;28;20174;-73
2021/05/08 02:08:36;;;;;;;2.83;2.60;;;5.10;99.90;;;;;;5046437;28;20188;-74
2021/05/08 02:11:01;;;;;;;2.67;1.97;;;5.10;99.90;;;;;;5032489;28;20636;-74
2021/05/08 02:13:27;;;;;;;3.00;2.43;;;5.00;99.90;;;;;;5032593;28;20266;-74
2021/05/08 02:15:52;;;;;;;3.43;2.27;;;5.20;99.90;;;;;;5052179;28;20221;-73
2021/05/08 02:18:18;;;;;;;3.10;2.50;;;5.20;99.90;;;;;;5051767;28;20340;-74
2021/05/08 02:20:45;;;;;;;3.27;2.10;;;5.20;99.90;;;;;;5051941;28;20222;-74
2021/05/08 02:23:16;;;;;;;2.70;2.50;;;5.30;99.90;;;;;;5051636;28;20214;-73
2021/05/08 02:25:42;;;;;;;2.50;2.30;;;5.30;99.90;;;;;;5052326;28;20184;-73
2021/05/08 02:28:08;;;;;;;2.40;2.10;;;5.30;99.90;;;;;;5052275;28;20184;-74
2021/05/08 02:30:37;;;;;;;1.87;1.77;;;5.30;99.90;;;;;;5034327;28;20212;-74
2021/05/08 02:33:03;;;;;;;2.30;2.10;;;5.20;99.90;;;;;;5050011;28;20190;-73
2021/05/08 02:35:29;;;;;;;1.93;1.83;;;5.10;99.90;;;;;;5050359;28;20260;-74
2021/05/08 02:37:56;;;;;;;1.73;1.63;;;5.00;99.90;;;;;;5050246;28;21026;-74
2021/05/08 02:40:24;;;;;;;3.63;1.97;;;5.00;99.90;;;;;;5047557;28;20206;-74
2021/05/08 02:42:50;;;;;;;2.77;2.00;;;5.10;99.90;;;;;;5050093;28;20175;-73
2021/05/08 02:45:16;;;;;;;2.53;2.10;;;5.00;99.90;;;;;;5050203;28;20185;-74
2021/05/08 02:47:44;;;;;;;2.33;2.13;;;4.90;99.90;;;;;;5051508;28;20643;-74
2021/05/08 02:50:12;;;;;;;2.33;2.10;;;4.90;99.90;;;;;;5051483;28;20184;-73
2021/05/08 02:52:38;;;;;;;2.50;2.27;;;5.00;99.90;;;;;;5051586;28;20520;-73
2021/05/08 02:55:05;;;;;;;2.43;2.27;;;5.00;99.90;;;;;;5044374;28;20185;-74
2021/05/08 02:57:31;;;;;;;3.87;2.20;;;5.10;99.90;;;;;;5044247;28;20665;-74
2021/05/08 02:59:57;;;;;;;2.53;2.33;;;5.10;99.90;;;;;;5072076;28;20190;-74
2021/05/08 03:02:23;;;;;;;3.70;2.10;;;5.10;99.90;;;;;;5071836;28;20184;-74
2021/05/08 03:04:48;;;;;;;2.20;2.00;;;5.00;99.90;;;;;;5071898;28;20238;-74
2021/05/08 03:07:14;;;;;;;2.63;2.20;;;4.80;99.90;;;;;;5071988;28;20210;-74
2021/05/08 03:09:40;;;;;;;2.00;1.90;;;4.70;99.90;;;;;;5072040;28;20208;-74
2021/05/08 03:12:07;;;;;;;3.47;2.80;;;4.70;99.90;;;;;;5071894;28;20749;-74
2021/05/08 03:14:33;;;;;;;3.20;2.50;;;4.80;99.90;;;;;;5071984;28;20257;-74
2021/05/08 03:16:58;;;;;;;2.37;1.97;;;4.80;99.90;;;;;;5071952;28;20274;-73
2021/05/08 03:19:24;;;;;;;4.20;2.47;;;4.80;99.90;;;;;;5071821;28;20553;-73
2021/05/08 03:21:50;;;;;;;2.70;2.50;;;4.90;99.90;;;;;;5071682;28;20745;-74
2021/05/08 03:24:16;;;;;;;2.97;2.07;;;4.70;99.90;;;;;;5071700;28;20211;-73
2021/05/08 03:26:41;;;;;;;2.17;1.93;;;4.70;99.90;;;;;;5071796;28;20681;-72
2021/05/08 03:29:07;;;;;;;2.47;2.27;;;4.70;99.90;;;;;;5071762;28;20211;-74
2021/05/08 03:31:33;;;;;;;2.23;2.07;;;4.80;99.90;;;;;;5075411;28;20206;-74
2021/05/08 03:33:59;;;;;;;2.63;2.30;;;4.70;99.90;;;;;;5075445;28;20186;-74
2021/05/08 03:36:25;;;;;;;2.50;2.30;;;4.70;99.90;;;;;;5075399;28;20549;-74
2021/05/08 03:38:51;;;;;;;2.90;2.23;;;4.70;99.90;;;;;;5065556;28;20189;-73
2021/05/08 03:41:17;;;;;;;2.90;2.50;;;4.70;99.90;;;;;;5067696;28;20698;-74
2021/05/08 03:43:43;;;;;;;2.10;1.97;;;4.70;99.90;;;;;;5075190;28;20568;-74
2021/05/08 03:46:08;;;;;;;2.23;2.10;;;4.70;99.90;;;;;;5075166;28;20180;-75
2021/05/08 03:48:34;;;;;;;2.50;2.30;;;4.70;99.90;;;;;;5075208;28;20207;-74
2021/05/08 03:51:00;;;;;;;2.33;2.13;;;4.50;99.90;;;;;;5075074;28;20251;-75
2021/05/08 03:53:25;;;;;;;2.53;2.10;;;4.50;99.90;;;;;;5075221;28;20241;-75
2021/05/08 03:55:52;;;;;;;2.20;2.00;;;4.50;99.90;;;;;;5074975;28;20206;-74
2021/05/08 03:58:37;;;;;;;2.30;1.97;;;4.50;99.90;;;;;;5075041;28;20182;-73
2021/05/08 04:01:02;;;;;;;2.60;2.40;;;4.50;99.90;;;;;;5061969;28;20677;-74
2021/05/08 04:03:28;;;;;;;2.53;2.33;;;4.50;99.90;;;;;;5040822;28;20242;-73
2021/05/08 04:05:54;;;;;;;2.60;2.40;;;4.50;99.90;;;;;;5055439;28;20179;-73
2021/05/08 04:08:20;;;;;;;3.20;1.90;;;4.40;99.90;;;;;;5053371;28;20187;-73
2021/05/08 04:10:49;;;;;;;2.40;2.20;;;4.40;99.90;;;;;;5053295;28;20897;-73
2021/05/08 04:13:15;;;;;;;3.30;2.10;;;4.40;99.90;;;;;;5054503;28;20182;-73
2021/05/08 04:15:42;;;;;;;4.57;2.33;;;4.50;99.90;;;;;;5053742;28;20648;-73
2021/05/08 04:18:07;;;;;;;2.73;2.07;;;4.40;99.90;;;;;;5054355;28;20176;-73
2021/05/08 04:20:33;;;;;;;2.63;2.30;;;4.40;99.90;;;;;;5054271;28;20225;-73
2021/05/08 04:22:59;;;;;;;2.97;2.20;;;4.40;99.90;;;;;;5054140;28;20193;-73
2021/05/08 04:25:25;;;;;;;2.47;2.27;;;4.30;99.90;;;;;;5036260;28;20183;-73
2021/05/08 04:27:50;;;;;;;2.40;2.20;;;4.40;99.90;;;;;;5054127;28;20179;-74
2021/05/08 04:30:17;;;;;;;2.50;2.03;;;4.40;99.90;;;;;;5052353;28;20198;-74
2021/05/08 04:32:42;;;;;;;2.20;2.00;;;4.30;99.90;;;;;;5051104;28;20661;-73
2021/05/08 04:35:09;;;;;;;2.30;2.10;;;4.20;99.90;;;;;;5054093;28;20189;-73
2021/05/08 04:37:34;;;;;;;2.43;2.20;;;4.10;99.90;;;;;;5054379;28;20192;-74
2021/05/08 04:40:00;;;;;;;3.20;2.30;;;4.10;99.90;;;;;;5053782;28;20182;-73
2021/05/08 04:42:26;;;;;;;3.27;2.07;;;4.10;99.90;;;;;;5041625;28;20669;-73
2021/05/08 04:44:51;;;;;;;3.87;2.07;;;4.30;99.90;;;;;;5051155;28;20207;-73
2021/05/08 04:47:20;;;;;;;3.10;2.23;;;4.40;99.90;;;;;;5073622;28;20167;-73
2021/05/08 04:49:46;;;;;;;2.50;2.27;;;4.50;99.90;;;;;;5073648;28;20189;-73
2021/05/08 04:52:11;;;;;;;2.77;2.43;;;4.40;99.90;;;;;;5055660;28;20196;-73
2021/05/08 04:54:37;;;;;;;2.77;2.57;;;4.40;99.90;;;;;;5055708;28;20605;-74
2021/05/08 04:57:03;;;;;;;2.83;2.33;;;4.50;99.90;;;;;;5048824;28;20200;-73
2021/05/08 04:59:30;;;;;;;2.40;2.20;;;4.50;99.90;;;;;;5030306;28;20214;-73
2021/05/08 05:01:55;;;;;;;3.10;2.10;;;4.50;99.90;;;;;;5051773;28;20203;-74
2021/05/08 05:04:21;;;;;;;2.80;2.60;;;4.50;99.90;;;;;;5053178;28;20330;-73
2021/05/08 05:06:46;;;;;;;2.90;2.60;;;4.60;99.90;;;;;;5053695;28;20654;-72
2021/05/08 05:09:12;;;;;;;2.80;2.60;;;4.60;99.90;;;;;;5040003;28;20182;-73
2021/05/08 05:11:38;;;;;;;2.90;2.60;;;4.70;99.90;;;;;;5057772;28;20198;-73
2021/05/08 05:14:04;;;;;;;2.77;2.47;;;4.80;99.90;;;;;;5053336;28;20195;-71
2021/05/08 05:16:29;;;;;;;2.97;2.77;;;5.00;99.90;;;;;;5051635;28;20552;-73
2021/05/08 05:18:55;;;;;;;2.93;2.67;;;5.00;99.90;;;;;;5034955;28;20192;-74
2021/05/08 05:21:21;;;;;;;3.10;2.80;;;5.00;99.90;;;;;;5035335;28;20215;-73
2021/05/08 05:23:47;;;;;;;2.40;2.20;;;5.00;99.90;;;;;;5053417;28;20282;-73
2021/05/08 05:26:12;;;;;;;3.03;2.73;;;5.10;99.90;;;;;;5053273;28;20179;-74
2021/05/08 05:28:38;;;;;;;2.90;2.50;;;5.20;99.90;;;;;;5051580;28;20246;-73
2021/05/08 05:31:04;;;;;;;2.80;2.60;;;5.30;99.90;;;;;;5051453;28;20200;-73
2021/05/08 05:33:29;;;;;;;2.90;2.70;;;5.40;99.90;;;;;;5049112;28;20257;-73
2021/05/08 05:35:56;;;;;;;3.00;2.60;;;5.50;99.90;;;;;;5066651;28;20733;-73
2021/05/08 05:38:23;;;;;;;2.90;2.00;;;5.70;99.90;;;;;;5053411;28;20266;-73
2021/05/08 05:40:50;;;;;;;3.40;2.47;;;5.70;99.90;;;;;;5049911;28;20209;-73
2021/05/08 05:43:16;;;;;;;2.47;2.20;;;5.80;99.90;;;;;;5044796;28;20208;-73
2021/05/08 05:45:42;;;;;;;2.50;2.27;;;6.00;99.90;;;;;;5071547;28;20555;-74
2021/05/08 05:48:08;;;;;;;3.43;2.20;;;6.10;99.90;;;;;;5064857;28;20174;-73
2021/05/08 05:50:42;;;;;;;2.27;2.07;;;6.20;99.90;;;;;;5053387;28;20194;-73
2021/05/08 05:53:08;;;;;;;2.50;2.30;;;6.20;99.90;;;;;;5052555;28;20199;-73
2021/05/08 05:55:34;;;;;;;2.63;2.33;;;6.30;99.90;;;;;;5036123;28;20231;-73
2021/05/08 05:58:00;;;;;;;3.00;2.07;;;6.40;99.90;;;;;;5053650;28;20603;-74
2021/05/08 06:00:25;;;;;;;3.00;2.40;;;6.40;99.90;;;;;;5035371;28;20210;-73
2021/05/08 06:02:51;;;;;;;3.27;2.47;;;6.50;99.90;;;;;;5053583;28;20235;-73
2021/05/08 06:05:17;;;;;;;2.97;2.20;;;6.40;99.90;;;;;;5053211;28;20257;-73
2021/05/08 06:07:43;;;;;;;3.00;2.33;;;6.40;99.90;;;;;;5053344;28;20269;-73
2021/05/08 06:10:10;;;;;;;2.60;2.40;;;6.30;99.90;;;;;;5053110;28;20177;-73
2021/05/08 06:12:37;;;;;;;2.57;2.37;;;6.30;99.90;;;;;;5053231;28;20197;-73
2021/05/08 06:15:07;;;;;;;4.00;2.43;;;6.40;99.90;;;;;;5053138;28;20202;-74
2021/05/08 06:17:34;;;;;;;3.40;2.90;;;6.40;99.90;;;;;;5052833;28;20189;-73
2021/05/08 06:20:00;;;;;;;3.30;2.70;;;6.60;99.90;;;;;;5052583;28;20260;-73
2021/05/08 06:22:25;;;;;;;3.30;3.00;;;6.50;99.90;;;;;;5053045;28;20626;-73
2021/05/08 06:24:51;;;;;;;3.63;2.90;;;6.40;99.90;;;;;;5053157;28;20210;-73
2021/05/08 06:27:17;;;;;;;3.37;2.80;;;6.40;99.90;;;;;;5043360;28;20190;-73
2021/05/08 06:29:43;;;;;;;3.33;3.03;;;6.40;99.90;;;;;;5040192;28;20498;-74
2021/05/08 06:32:08;;;;;;;3.30;3.00;;;6.60;99.90;;;;;;5040219;28;20303;-74
2021/05/08 06:34:34;;;;;;;4.33;3.80;;;6.60;99.90;;;;;;5051659;28;20188;-74
2021/05/08 06:37:02;;;;;;;4.50;4.10;;;6.80;99.90;;;;;;5033806;28;20185;-74
2021/05/08 06:39:28;;;;;;;4.23;3.60;;;6.80;99.90;;;;;;5036945;28;20183;-74
2021/05/08 06:41:54;;;;;;;5.10;4.60;;;7.00;99.90;;;;;;5033982;28;20202;-73
2021/05/08 06:44:20;;;;;;;4.83;4.43;;;7.10;99.90;;;;;;5048234;28;20285;-74
2021/05/08 06:46:46;;;;;;;4.03;3.73;;;7.20;99.90;;;;;;5035964;28;20182;-74
2021/05/08 06:49:12;;;;;;;3.87;3.47;;;7.30;99.90;;;;;;5048275;28;20178;-74
2021/05/08 06:51:38;;;;;;;4.33;3.93;;;7.50;99.90;;;;;;5033826;28;20216;-73
2021/05/08 06:54:05;;;;;;;3.90;3.50;;;7.60;99.90;;;;;;5051941;28;20204;-73
2021/05/08 06:56:31;;;;;;;4.70;4.10;;;7.70;99.90;;;;;;5051307;28;20183;-74
2021/05/08 06:58:57;;;;;;;3.80;3.40;;;7.60;99.90;;;;;;5046176;28;20191;-74
2021/05/08 07:01:23;;;;;;;3.60;3.30;;;7.60;99.90;;;;;;5046046;28;20522;-73
2021/05/08 07:03:49;;;;;;;6.50;3.80;;;7.70;99.90;;;;;;5051196;28;20212;-73
2021/05/08 07:06:15;;;;;;;3.87;3.57;;;7.70;99.90;;;;;;5064605;28;20228;-73
2021/05/08 07:08:40;;;;;;;3.70;3.40;;;7.80;99.90;;;;;;5056232;28;20676;-73
2021/05/08 07:11:06;;;;;;;3.77;3.27;;;8.00;99.90;;;;;;5056840;28;20203;-73
2021/05/08 07:13:31;;;;;;;4.30;3.90;;;8.00;99.90;;;;;;5053691;28;20698;-73
2021/05/08 07:15:57;;;;;;;4.27;3.67;;;8.00;99.90;;;;;;5053345;28;20261;-73
2021/05/08 07:18:24;;;;;;;4.13;3.70;;;8.10;99.90;;;;;;5037303;28;20205;-72
2021/05/08 07:20:51;;;;;;;4.43;3.20;;;8.10;99.90;;;;;;5081350;22;20317;-74
2021/05/08 07:23:17;;;;;;;3.33;3.03;;;8.30;99.90;;;;;;5098345;28;20232;-74
2021/05/08 07:25:43;;;;;;;3.90;3.37;;;8.40;99.90;;;;;;5091504;28;20166;-72
2021/05/08 07:28:28;;;;;;;3.07;2.83;;;8.60;99.90;;;;;;5101891;28;20174;-74
2021/05/08 07:30:55;;;;;;;3.90;2.93;;;8.70;99.90;;;;;;5104699;28;20197;-74
2021/05/08 07:33:21;;;;;;;5.97;3.40;;;8.80;99.90;;;;;;5104020;28;20178;-72
2021/05/08 07:35:48;;;;;;;3.83;3.40;;;9.00;99.90;;;;;;5102324;28;20170;-72
2021/05/08 07:38:15;;;;;;;3.63;3.30;;;9.20;99.90;;;;;;5102733;28;20175;-72
2021/05/08 07:40:41;;;;;;;3.90;3.50;;;9.40;99.90;;;;;;5103649;28;20594;-73
2021/05/08 07:43:09;;;;;;;3.23;2.97;;;9.50;99.90;;;;;;5105581;28;20201;-73
2021/05/08 07:45:37;;;;;;;4.43;3.90;;;9.40;99.90;;;;;;5105937;28;20178;-74
2021/05/08 07:48:03;;;;;;;7.20;4.17;;;9.50;99.90;;;;;;5103639;28;20664;-75
2021/05/08 07:50:29;;;;;;;5.33;4.23;;;9.60;99.90;;;;;;5104206;28;20183;-73
2021/05/08 07:52:56;;;;;;;11.60;5.07;;;9.70;99.90;;;;;;5102472;28;20168;-73
2021/05/08 07:55:23;;;;;;;5.73;4.33;;;9.80;99.90;;;;;;5103871;28;20164;-74
2021/05/08 07:57:49;;;;;;;7.63;4.30;;;9.80;99.90;;;;;;5103514;28;20167;-73
2021/05/08 08:00:17;;;;;;;6.47;4.83;;;9.90;99.90;;;;;;5100135;28;20196;-74
2021/05/08 08:02:42;;;;;;;4.93;4.43;;;10.00;99.90;;;;;;5101550;28;20186;-74
2021/05/08 08:05:09;;;;;;;5.37;4.40;;;10.10;99.90;;;;;;5101318;28;20260;-72
2021/05/08 08:07:35;;;;;;;6.93;4.30;;;10.20;99.90;;;;;;5090981;28;20176;-72
2021/05/08 08:10:02;;;;;;;5.77;3.97;;;10.10;99.90;;;;;;5098163;28;20179;-73
2021/05/08 08:12:28;;;;;;;9.67;4.53;;;10.10;99.90;;;;;;5100814;28;20195;-73
2021/05/08 08:14:53;;;;;;;4.10;3.77;;;10.20;99.90;;;;;;5099130;28;20175;-72
2021/05/08 08:17:19;;;;;;;6.97;3.73;;;10.50;99.90;;;;;;5097638;28;20176;-73
2021/05/08 08:19:49;;;;;;;8.37;4.10;;;10.60;99.90;;;;;;5100660;28;20281;-72
2021/05/08 08:22:16;;;;;;;4.57;3.77;;;10.60;99.90;;;;;;5099913;28;20207;-72
2021/05/08 08:24:43;;;;;;;3.80;3.50;;;10.70;99.90;;;;;;5085168;28;20201;-72
2021/05/08 08:27:08;;;;;;;5.60;4.30;;;10.70;99.90;;;;;;5080858;28;20221;-73
2021/05/08 08:29:34;;;;;;;5.60;3.70;;;10.90;99.90;;;;;;5078597;28;20180;-72
2021/05/08 08:32:00;;;;;;;6.50;3.90;;;11.10;99.90;;;;;;5078224;28;20200;-73
2021/05/08 08:34:26;;;;;;;6.40;4.30;;;11.20;99.90;;;;;;5076099;28;20173;-73
2021/05/08 08:39:27;;;;;;;4.65;3.40;;;11.50;99.90;;;;;;5149985;22;20955;-72
2021/05/08 08:41:53;;;;;;;5.33;3.10;;;11.70;99.90;;;;;;5054132;28;20193;-71
2021/05/08 08:44:19;;;;;;;4.10;3.40;;;11.80;99.90;;;;;;5056781;28;20680;-71
2021/05/08 08:46:45;;;;;;;2.67;2.43;;;11.90;99.90;;;;;;5055669;28;20266;-71
2021/05/08 08:49:12;;;;;;;2.50;2.30;;;11.90;99.90;;;;;;5045755;28;20198;-72
2021/05/08 08:51:42;;;;;;;2.60;2.40;;;12.00;99.90;;;;;;5089449;22;20231;-75
2021/05/08 08:54:08;;;;;;;2.57;2.37;;;12.00;99.90;;;;;;5070434;28;20173;-76
2021/05/08 08:56:40;;;;;;;2.43;2.20;;;12.10;99.90;;;;;;5076381;28;20184;-76
2021/05/08 08:59:14;;;;;;;5.57;2.70;;;;;;;;;;5076334;28;20180;-76
2021/05/08 09:01:42;;;;;;;2.17;1.80;;;12.10;99.90;;;;;;5074335;28;20191;-76
2021/05/08 09:04:10;;;;;;;2.40;2.20;;;12.10;99.90;;;;;;5072306;28;20279;-75
2021/05/08 09:06:37;;;;;;;1.90;1.80;;;12.10;99.90;;;;;;5061861;28;20174;-76
2021/05/08 09:09:03;;;;;;;1.93;1.80;;;12.20;99.90;;;;;;5062049;28;20578;-76
2021/05/08 09:11:29;;;;;;;2.33;1.93;;;12.50;99.90;;;;;;5070697;28;20207;-76
2021/05/08 09:14:15;;;;;;;2.23;2.03;;;12.70;99.90;;;;;;5074584;28;20177;-76
2021/05/08 09:17:00;;;;;;;2.53;2.10;;;12.70;99.90;;;;;;5070065;28;20183;-76
2021/05/08 09:19:26;;;;;;;2.37;1.97;;;12.90;99.90;;;;;;5073682;28;20520;-76
2021/05/08 09:21:52;;;;;;;2.83;2.10;;;13.00;99.90;;;;;;5072493;28;20219;-76
2021/05/08 09:24:17;;;;;;;2.97;2.00;;;13.10;99.90;;;;;;5073079;28;20196;-76
2021/05/08 09:26:48;;;;;;;2.27;1.97;;;13.20;99.90;;;;;;5073233;28;20180;-76
2021/05/08 09:29:24;;;;;;;2.33;2.10;;;13.30;99.90;;;;;;5073172;28;20188;-77
2021/05/08 09:31:54;;;;;;;5.57;2.23;;;13.40;99.90;;;;;;5074498;28;20188;-76
2021/05/08 09:34:19;;;;;;;2.80;2.13;;;13.60;99.90;;;;;;5074045;28;20174;-76
2021/05/08 09:37:00;;;;;;;2.40;2.00;;;13.60;99.90;;;;;;5069133;28;20203;-76
2021/05/08 09:39:30;;;;;;;3.70;2.00;;;13.80;99.90;;;;;;5071467;28;20189;-76
2021/05/08 09:41:56;;;;;;;2.40;2.20;;;13.80;99.90;;;;;;5082031;28;20189;-81
2021/05/08 09:44:22;;;;;;;2.40;2.10;;;13.80;99.90;;;;;;5090959;28;20199;-81
2021/05/08 09:46:47;;;;;;;2.70;1.83;;;13.90;99.90;;;;;;5073973;28;20178;-80
2021/05/08 09:49:15;;;;;;;2.77;1.63;;;13.90;99.90;;;;;;5111591;28;20242;-81
2021/05/08 09:51:41;;;;;;;3.43;1.77;;;14.00;99.90;;;;;;5111260;28;20203;-81
2021/05/08 09:54:11;;;;;;;1.70;1.60;;;14.00;99.90;;;;;;5111709;28;20181;-81
2021/05/08 09:56:41;;;;;;;4.93;1.80;;;14.20;99.90;;;;;;5113538;28;20568;-80
2021/05/08 09:59:31;;;;;;;2.00;1.70;;;14.40;99.90;;;;;;5101191;28;20180;-80
2021/05/08 10:02:06;;;;;;;1.77;1.67;;;14.10;99.90;;;;;;5085107;28;20205;-80
2021/05/08 10:04:34;;;;;;;2.03;1.77;;;14.10;99.90;;;;;;5075168;28;20212;-81
2021/05/08 10:07:06;;;;;;;2.03;1.83;;;14.30;99.90;;;;;;5082092;28;20253;-80
2021/05/08 10:09:36;;;;;;;1.97;1.50;;;14.50;99.90;;;;;;5086021;28;20178;-81
2021/05/08 10:12:06;;;;;;;1.53;1.43;;;14.70;99.90;;;;;;5091416;28;20195;-79
2021/05/08 10:14:37;;;;;;;1.73;1.43;;;14.80;99.90;;;;;;5083529;28;20207;-80
2021/05/08 10:17:03;;;;;;;2.27;1.87;;;14.90;99.90;;;;;;5086843;28;20161;-81
2021/05/08 10:19:34;;;;;;;3.07;2.03;;;;;;;;;;5099112;28;20199;-82
2021/05/08 10:22:05;;;;;;;3.60;1.50;;;15.20;99.90;;;;;;5091208;28;20206;-81
2021/05/08 10:24:32;;;;;;;2.17;1.80;;;15.40;99.90;;;;;;5092591;28;20208;-81
2021/05/08 10:26:58;;;;;;;1.70;1.60;;;15.60;99.90;;;;;;5077966;28;20765;-68
2021/05/08 10:29:28;;;;;;;2.37;1.80;;;;;;;;;;5073284;28;20267;-68
2021/05/08 10:31:55;;;;;;;2.73;1.83;;;15.80;99.90;;;;;;5065420;28;20220;-68
2021/05/08 10:34:34;;;;;;;2.90;1.90;;;15.70;99.90;;;;;;5083861;28;20669;-67
2021/05/08 10:37:10;;;;;;;3.47;2.40;;;15.80;99.90;;;;;;5092899;28;20539;-67
2021/05/08 10:39:54;;;;;;;2.13;1.93;;;15.90;99.90;;;;;;5069716;28;20180;-69
2021/05/08 10:42:41;;;;;;;4.53;1.53;;;15.90;99.90;;;;;;5073913;28;20200;-67
2021/05/08 10:45:12;;;;;;;1.83;1.37;;;15.90;99.90;;;;;;5073589;28;20602;-68
2021/05/08 10:47:56;;;;;;;2.40;1.10;;;15.90;99.90;;;;;;5073805;28;20216;-68
2021/05/08 10:50:35;;;;;;;1.20;1.00;;;15.80;99.90;;;;;;5073132;28;20196;-68
2021/05/08 10:53:01;;;;;;;1.43;1.03;;;15.60;99.90;;;;;;5073339;28;20221;-68
2021/05/08 10:55:41;;;;;;;1.43;1.00;;;15.80;99.90;;;;;;5072052;28;20650;-67
2021/05/08 10:58:21;;;;;;;2.50;0.70;;;15.90;99.90;;;;;;5059728;28;20247;-68
2021/05/08 11:00:49;;;;;;;1.53;1.30;;;16.10;99.90;;;;;;5072842;28;20272;-68
2021/05/08 11:03:16;;;;;;;2.08;1.50;;;16.30;99.90;;;;;;5071418;28;20406;-68
2021/05/08 11:05:54;;;;;;;2.37;1.43;;;16.50;99.90;;;;;;5073648;28;20174;-68
2021/05/08 11:08:26;;;;;;;1.57;1.20;;;16.70;99.90;;;;;;5073082;28;20252;-68
2021/05/08 11:11:04;;;;;;;1.10;1.00;;;16.80;99.90;;;;;;5074048;28;20196;-68
2021/05/08 11:13:42;;;;;;;1.63;1.13;;;17.00;99.90;;;;;;5093268;28;20173;-68
2021/05/08 11:16:18;;;;;;;1.70;0.90;;;17.20;99.90;;;;;;5093006;28;20233;-68
2021/05/08 11:18:48;;;;;;;3.40;1.13;;;17.00;99.90;;;;;;5093568;28;20209;-67
2021/05/08 11:21:14;;;;;;;2.93;1.00;;;16.90;99.90;;;;;;5093027;28;20197;-68
2021/05/08 11:23:49;;;;;;;2.73;1.10;;;17.10;99.90;;;;;;5084654;28;20914;-66
2021/05/08 11:28:52;;;;;;;2.00;1.13;;;17.20;99.90;;;;;;5073427;28;20179;-69
2021/05/08 11:31:22;;;;;;;1.40;1.03;;;17.30;99.90;;;;;;5072792;28;20197;-68
2021/05/08 11:33:48;;;;;;;1.23;1.13;;;17.40;99.90;;;;;;5073011;28;20662;-70
2021/05/08 11:36:14;;;;;;;1.17;0.90;;;17.50;99.90;;;;;;5072560;28;20184;-69
2021/05/08 11:38:39;;;;;;;1.30;1.00;;;17.50;99.90;;;;;;5073058;28;20180;-69
2021/05/08 11:41:22;;;;;;;1.63;0.83;;;17.10;99.90;;;;;;5072430;28;20197;-68
2021/05/08 11:43:54;;;;;;;2.07;0.97;;;17.00;99.90;;;;;;5071697;28;20203;-67
2021/05/08 11:46:30;;;;;;;0.90;0.73;;;16.70;99.90;;;;;;5068757;28;20175;-69
2021/05/08 11:48:56;;;;;;;1.27;1.17;;;16.90;99.90;;;;;;5064332;28;20248;-67
2021/05/08 11:51:22;;;;;;;0.93;0.93;;;16.90;99.90;;;;;;5072848;28;20257;-69
2021/05/08 11:54:10;;;;;;;1.40;1.30;;;17.10;99.90;;;;;;5076445;28;20659;-68
2021/05/08 11:56:36;;;;;;;1.27;1.17;;;;;;;;;;5074881;28;20180;-68
2021/05/08 11:59:04;;;;;;;1.17;1.00;;;17.80;99.90;;;;;;5076092;28;20176;-69
2021/05/08 12:01:31;;;;;;;1.67;1.30;;;17.80;99.90;;;;;;5075833;28;20217;-69
2021/05/08 12:03:57;;;;;;;0.77;0.77;;;18.00;99.90;;;;;;5075782;28;20242;-67
2021/05/08 12:06:24;;;;;;;1.97;0.53;;;;;;;;;;5076017;28;20204;-70
2021/05/08 12:08:50;;;;;;;0.40;0.40;;;;;;;;;;5075016;28;20172;-67
2021/05/08 12:11:17;;;;;;;0.70;0.60;;;;;;;;;;5073988;28;20593;-68
2021/05/08 12:13:43;;;;;;;0.77;0.77;;;;;;;;;;5095262;28;20183;-69
2021/05/08 12:16:10;;;;;;;0.50;0.50;;;;;;;;;;5091641;28;20185;-69
2021/05/08 12:18:36;;;;;;;0.93;0.57;;;;;;;;;;5073165;28;20186;-69
2021/05/08 12:21:02;;;;;;;1.13;0.50;;;;;;;;;;5076506;28;20617;-68
2021/05/08 12:23:29;;;;;;;0.50;0.50;;;;;;;;;;5074921;28;20231;-69
2021/05/08 12:26:08;;;;;;;1.03;0.53;;;;;;;;;;5077069;28;20176;-69
2021/05/08 12:28:35;;;;;;;0.43;0.43;;;;;;;;;;5079212;28;20173;-69
2021/05/08 12:31:19;;;;;;;1.90;0.73;;;;;;;;;;5078458;28;20204;-69
2021/05/08 12:33:45;;;;;;;1.67;0.63;;;;;;;;;;5077245;28;20191;-69
2021/05/08 12:36:20;;;;;;;0.67;0.40;;;;;;;;;;5077462;28;20192;-70
2021/05/08 12:38:47;;;;;;;0.50;0.50;;;;;;;;;;5060769;28;20180;-69
2021/05/08 12:41:45;;;;;;;0.53;0.50;;;;;;;;;;5059342;28;20189;-69
2021/05/08 12:44:12;;;;;;;0.77;0.60;;;;;;;;;;5042415;28;20252;-68
2021/05/08 12:46:58;;;;;;;0.53;0.50;;;;;;;;;;5076468;28;20173;-69
2021/05/08 12:49:25;;;;;;;0.77;0.67;;;;;;;;;;5073118;28;20172;-71
2021/05/08 12:51:51;;;;;;;0.70;0.50;;;18.30;99.90;;;;;;5076034;28;20208;-69
2021/05/08 12:54:19;;;;;;;1.37;0.60;;;19.40;98.80;;;;;;5076817;28;20166;-69
2021/05/08 12:56:45;;;;;;;2.67;0.50;;;;;;;;;;5083418;28;20180;-69
2021/05/08 12:59:11;;;;;;;3.47;0.80;;;;;;;;;;5094827;28;20654;-68
2021/05/08 13:01:39;;;;;;;3.30;0.73;;;;;;;;;;5095136;28;20193;-69
2021/05/08 13:04:06;;;;;;;0.50;0.50;;;;;;;;;;5094063;28;20192;-69
2021/05/08 13:06:32;;;;;;;0.80;0.63;;;;;;;;;;5095273;28;20271;-68
2021/05/08 13:08:57;;;;;;;0.47;0.47;;;19.60;99.00;;;;;;5094664;28;20646;-69
2021/05/08 13:11:40;;;;;;;0.83;0.50;;;20.00;99.90;;;;;;5094742;28;20227;-69